HOURLY OBS INDEX

041

Darling Downs - east

APPLETHORPE

Site: 041175
Alt: 871.6m
118km S of TOOWOOMBA


  Time     Wind        Temp  DP   Baro     Rain since   Rain past  Vis(m), Cloud(base in m), Weather
  local        km/h                         9am  last   hr   10m    
Thu 16:00    N 17/ 30  27.7 13.6  1005.9    0.0   0.0   0.0   0.0   ----- 
Thu 16:30  NNE 17/ 26  26.7 13.4  1005.7    0.0   0.0   0.0   0.0   ----- 
Thu 17:00  NNE 19/ 32  26.4 13.2  1006.2    0.0   0.0   0.0   0.0   ----- 
Thu 17:30    N 17/ 26  25.9 13.1  1006.7    0.0   0.0   0.0   0.0   ----- 
Thu 18:00  NNE 15/ 28  25.3 13.2  1007.1    0.0   0.0   0.0   0.0   ----- 
Thu 18:00  NNE 15/ 28  25.3 13.2  1007.1    0.0   0.0  ----   0.0   ----- 
Thu 18:30   SW 15/ 24  20.2 15.8  1008.4    0.0   0.0   0.0   0.0   ----- 
Thu 19:00  WSW  9/ 13  18.4 18.2  1010.1    1.0   1.0   1.0   0.8   ----- 
Thu 19:30    W  6/  9  18.4 18.4  1010.5    5.2   4.2   5.2   1.8   ----- 
Thu 20:00  WNW  6/  9  18.0 18.0  1010.7   12.6   7.4  11.6   3.2   ----- 
Thu 20:00  WNW  6/  9  18.0 18.0  1010.7   12.6   0.0  ----   3.2   ----- 
Thu 20:00  WNW  6/  9  18.0 18.0  1010.7   12.6   0.0  ----   3.2   ----- 
Thu 20:30  WSW  4/  7  18.0 18.0  1010.9   17.4   4.8  12.2   1.2   ----- 
Thu 21:00    N  4/  7  17.6 17.6  1011.2   21.4   4.0   8.8   1.6   ----- 

BRISBANE WEST WELLCAMP AIRPORT

Site: 041BWW
Alt: 530m
17km W of TOOWOOMBA


  Time     Wind        Temp  DP   Baro     Rain since   Rain past  Vis(m), Cloud(base in m), Weather
  local        km/h                         9am  last   hr   10m    
Thu 16:00  NNE 24/ 33  31.8 13.1  1003.4    0.0   0.0   0.0   0.0   10000 
Thu 16:30    N 30/ 41  31.0 11.9  1003.2    0.0   0.0   0.0   0.0   10000|SC2160 
Thu 17:00    N 30/ 39  29.9 12.8  1004.1    0.0   0.0   0.0   0.0   10000 
Thu 17:30    N 28/ 35  29.2 10.8  1004.7    0.0   0.0   0.0   0.0   10000 
Thu 18:00    N 30/ 41  28.7 12.2  1005.2    0.0   0.0   0.0   0.0   10000 
Thu 18:00    N 30/ 41  28.7 12.2  1005.2    0.0   0.0  ----   0.0   10000 
Thu 18:30  NNE 24/ 33  28.1 13.2  1006.1    0.0   0.0   0.0   0.0   10000 
Thu 19:00    N 20/ 28  27.7 13.3  1006.2    0.0   0.0   0.0   0.0   10000 
Thu 19:30    N 26/ 35  27.7 12.1  1006.5    0.0   0.0   0.0   0.0   10000|SC2100 BR2700 
Thu 20:00    W 32/ 43  26.7 16.9  1007.4    0.0   0.0   0.0   0.0   10000|SC1560 BR1950 OC2490 
Thu 20:00    W 32/ 43  26.7 16.9  1007.4    0.0   0.0  ----   0.0   10000|SC1560 BR1950 OC2490 
Thu 20:00    W 32/ 43  26.7 16.9  1007.4    0.0   0.0  ----   0.0   10000|SC1560 BR1950 OC2490 
Thu 20:30  WSW 20/ 30  22.3 19.3  1007.5    0.0   0.0   0.0   0.0   10000|BR1620 OC1860 OC2760 
Thu 21:00   SE  7/ 13  21.9 19.8  1007.1    0.0   0.0   0.0   0.0   10000|SC1680 SC2790 SC3300 

DALBY AIRPORT

Site: 041522
Alt: 343.9m
3km NNE of DALBY


  Time     Wind        Temp  DP   Baro     Rain since   Rain past  Vis(m), Cloud(base in m), Weather
  local        km/h                         9am  last   hr   10m    
Thu 16:00    N 33/ 48  31.3 12.6  1003.2    0.0   0.0   0.0   0.0   ----- 
Thu 16:30    N 33/ 45  30.0 12.4  1003.5    0.0   0.0   0.0   0.0   ----- 
Thu 17:00    N 35/ 48  29.4 13.2  1003.9    0.0   0.0   0.0   0.0   ----- 
Thu 17:30    N 33/ 43  28.9 13.6  1004.1    0.0   0.0   0.0   0.0   ----- 
Thu 18:00    N 30/ 39  28.5 14.0  1004.9    0.0   0.0   0.0   0.0   ----- 
Thu 18:00    N 30/ 39  28.5 14.0  1004.9    0.0   0.0  ----   0.0   ----- 
Thu 18:30    N 24/ 32  26.8 15.5  1005.3    0.0   0.0   0.0   0.0   ----- 
Thu 19:00    N 22/ 30  27.5 14.8  1005.9    0.0   0.0   0.0   0.0   ----- 
Thu 19:30  WSW 28/ 43  24.3 16.3  1007.1    0.0   0.0   0.0   0.0   ----- 
Thu 19:33  WSW 28/ 46  23.5 17.0  1007.0    0.0   0.0  ----   0.0   ----- 
Thu 20:00  WSW 19/ 33  21.5 18.9  1007.5    0.2   0.2   0.2   0.2   ----- 
Thu 20:00  WSW 19/ 33  21.5 18.9  1007.5    0.2   0.0  ----   0.2   ----- 
Thu 20:00  WSW 19/ 33  21.5 18.9  1007.5    0.2   0.0  ----   0.2   ----- 
Thu 20:30    E 15/ 20  21.3 19.0  1005.8    1.6   1.4   1.6   0.2   ----- 
Thu 21:00  ENE 20/ 24  21.4 19.3  1005.1    1.6   0.0   1.4   0.0   ----- 

OAKEY AERO

Site: 041359
Alt: 405.7m
27km NW of TOOWOOMBA


  Time     Wind        Temp  DP   Baro     Rain since   Rain past  Vis(m), Cloud(base in m), Weather
  local        km/h                         9am  last   hr   10m    
Thu 16:00    N 24/ 39  30.8 11.7  1003.8    0.0   0.0   0.0   0.0   10000 
Thu 16:30    N 30/ 39  30.3 12.2  1003.7    0.0   0.0   0.0   0.0   10000 
Thu 17:00    N 33/ 41  29.1 10.7  1004.4    0.0   0.0   0.0   0.0   10000 
Thu 17:30    N 30/ 37  28.5 11.6  1005.2    0.0   0.0   0.0   0.0   10000 
Thu 18:00    N 28/ 35  28.3 13.0  1005.5    0.0   0.0   0.0   0.0   10000 
Thu 18:00    N 28/ 35  28.3 13.0  1005.5    0.0   0.0  ----   0.0   10000 
Thu 18:30    N 28/ 35  28.0 12.0  1006.4    0.0   0.0   0.0   0.0   10000|SC2850 
Thu 19:00    N 22/ 30  27.7 11.7  1006.6    0.0   0.0   0.0   0.0   10000|OC2850 
Thu 19:30    N 20/ 28  27.4 12.2  1006.8    0.0   0.0   0.0   0.0   10000|OC2790 
Thu 20:00    N 17/ 20  27.1 12.7  1007.1    0.0   0.0   0.0   0.0   10000|OC2580 
Thu 20:00    N 17/ 20  27.1 12.7  1007.1    0.0   0.0  ----   0.0   10000|OC2580 
Thu 20:00    N 17/ 20  27.1 12.7  1007.1    0.0   0.0  ----   0.0   10000|OC2580 
Thu 20:11   SW 30/ 39  23.9 17.6  1007.9    0.0   0.0  ----   0.0   10000|SC1560 BR1950 OC2580 
Thu 20:30  WSW 24/ 30  22.6 19.4  1008.1    0.0   0.0   0.0   0.0   10000|OC1560 
Thu 21:00  WSW 11/ 17  21.9 19.8  1007.2    0.0   0.0   0.0   0.0   10000|SC1620 BR2280 BR3300 

TOOWOOMBA AIRPORT

Site: 041529
Alt: 640.9m
4km WNW of TOOWOOMBA


  Time     Wind        Temp  DP   Baro     Rain since   Rain past  Vis(m), Cloud(base in m), Weather
  local        km/h                         9am  last   hr   10m    
Thu 16:00    N 17/ 28  28.9 11.0  1006.3    0.0   0.0   0.0   0.0   10000 
Thu 16:30    N 24/ 35  28.4 10.1  1006.2    0.0   0.0   0.0   0.0   10000 
Thu 17:00    N 20/ 32  27.3 11.7  1006.8    0.0   0.0   0.0   0.0   10000 
Thu 17:30    N 20/ 30  26.6 11.9  1007.5    0.0   0.0   0.0   0.0   10000 
Thu 18:00    N 22/ 32  26.1 12.5  1008.1    0.0   0.0   0.0   0.0   10000 
Thu 18:00    N 22/ 32  26.1 12.5  1008.1    0.0   0.0  ----   0.0   10000 
Thu 18:30    N 19/ 26  25.7 13.2  1008.9    0.0   0.0   0.0   0.0   10000 
Thu 19:00    N 17/ 24  25.2 14.0  1009.0    0.0   0.0   0.0   0.0   10000 
Thu 19:30    N 17/ 22  25.0 14.5  1009.2    0.0   0.0   0.0   0.0   10000 
Thu 20:00    N 13/ 22  24.9 14.4  1009.4    0.0   0.0   0.0   0.0   10000|BR2340 BR3000 
Thu 20:00    N 13/ 22  24.9 14.4  1009.4    0.0   0.0  ----   0.0   10000|BR2340 BR3000 
Thu 20:00    N 13/ 22  24.9 14.4  1009.4    0.0   0.0  ----   0.0   10000|BR2340 BR3000 
Thu 20:30  WSW 22/ 35  22.0 16.5  1010.1    0.0   0.0   0.0   0.0   10000|BR1410 BR2280 BR2550 
Thu 21:00  SSW 13/ 19  20.6 18.2  1009.9    0.0   0.0   0.0   0.0   10000|BR1410 BR1950 BR2610 

WARWICK

Site: 041525
Alt: 475.4m
73km SSE of TOOWOOMBA


  Time     Wind        Temp  DP   Baro     Rain since   Rain past  Vis(m), Cloud(base in m), Weather
  local        km/h                         9am  last   hr   10m    
Thu 16:00    N 24/ 35  31.1 11.9  1003.1    0.0   0.0   0.0   0.0   ----- 
Thu 16:30  NNE 26/ 41  30.2 12.4  1003.1    0.0   0.0   0.0   0.0   ----- 
Thu 17:00  NNE 30/ 43  29.7 13.3  1003.4    0.0   0.0   0.0   0.0   ----- 
Thu 17:30  NNE 32/ 43  28.6 13.7  1004.2    0.0   0.0   0.0   0.0   ----- 
Thu 18:00   NE 30/ 41  27.1 16.5  1004.7    0.0   0.0   0.0   0.0   ----- 
Thu 18:00   NE 30/ 41  27.1 16.5  1004.7    0.0   0.0  ----   0.0   ----- 
Thu 18:30  NNE 30/ 39  26.2 16.9  1005.4    0.0   0.0   0.0   0.0   ----- 
Thu 19:00  NNE 30/ 43  25.7 16.7  1006.3    0.0   0.0   0.0   0.0   ----- 
Thu 19:30  NNE 24/ 35  24.8 17.2  1007.0    0.0   0.0   0.0   0.0   ----- 
Thu 20:00   NW 17/ 37  20.2 18.3  1008.4    2.6   2.6   2.6   2.2   ----- 
Thu 20:00   NW 17/ 37  20.2 18.3  1008.4    2.6   0.0  ----   2.2   ----- 
Thu 20:00   NW 17/ 37  20.2 18.3  1008.4    2.6   0.0  ----   2.2   ----- 
Thu 20:30    W  9/ 15  20.2 19.4  1008.4    4.2   1.6   4.2   0.4   ----- 
Thu 21:00  WSW  6/  9  20.1 19.6  1008.4    5.8   1.6   3.2   0.8   -----